Time;durP1;ratioP1;P1;durP2;ratioP2;P2;SDS_P1;SDS_P2;PMS_P1;PMS_P2;Temp;Humidity;BMP_temperature;BMP_pressure;BME280_temperature;BME280_humidity;BME280_pressure;Samples;Min_cycle;Max_cycle;Signal;HPM_P1;HPM_P2
2022/03/14 00:01:14;;;;;;;66.80;49.80;;;17.40;55.50;;;;;;4916343;28;97873;-71
2022/03/14 00:03:58;;;;;;;66.78;49.80;;;17.50;55.50;;;;;;4915494;28;95031;-71
2022/03/14 00:06:24;;;;;;;65.78;49.33;;;17.50;55.40;;;;;;4919109;28;96811;-71
2022/03/14 00:08:50;;;;;;;66.47;49.45;;;17.60;55.40;;;;;;4913595;28;96293;-70
2022/03/14 00:11:16;;;;;;;66.60;49.40;;;17.70;55.30;;;;;;4915523;28;95938;-70
2022/03/14 00:13:44;;;;;;;66.70;49.67;;;17.70;55.30;;;;;;4919318;28;95436;-71
2022/03/14 00:16:10;;;;;;;67.20;49.78;;;17.80;55.20;;;;;;4911593;28;96101;-70
2022/03/14 00:18:36;;;;;;;67.43;49.75;;;17.80;55.10;;;;;;4911745;28;95369;-71
2022/03/14 00:21:02;;;;;;;66.03;49.13;;;17.90;55.00;;;;;;4916173;28;96707;-71
2022/03/14 00:23:28;;;;;;;66.50;49.58;;;17.90;54.80;;;;;;4916065;28;94127;-71
2022/03/14 00:25:54;;;;;;;66.35;49.47;;;18.00;54.80;;;;;;4909214;28;96628;-71
2022/03/14 00:28:20;;;;;;;66.97;49.75;;;18.00;54.80;;;;;;4920270;28;95259;-71
2022/03/14 00:30:46;;;;;;;66.95;49.72;;;18.10;54.60;;;;;;4911013;28;96966;-71
2022/03/14 00:33:12;;;;;;;67.35;49.42;;;18.10;54.60;;;;;;4916973;28;95152;-70
2022/03/14 00:35:38;;;;;;;67.28;49.53;;;18.20;54.40;;;;;;4908089;28;96066;-71
2022/03/14 00:38:04;;;;;;;66.30;49.40;;;18.20;54.40;;;;;;4927880;28;96263;-71
2022/03/14 00:40:29;;;;;;;66.65;49.50;;;18.20;54.30;;;;;;4916411;28;95452;-71
2022/03/14 00:42:55;;;;;;;66.65;49.63;;;18.20;54.20;;;;;;4917835;28;95100;-70
2022/03/14 00:45:25;;;;;;;67.10;49.50;;;18.30;54.30;;;;;;4917233;28;97670;-70
2022/03/14 00:47:51;;;;;;;65.90;49.33;;;18.30;54.20;;;;;;4914174;28;97421;-70
2022/03/14 00:50:17;;;;;;;66.78;49.50;;;18.30;54.00;;;;;;4917157;28;95159;-70
2022/03/14 00:52:42;;;;;;;66.05;49.30;;;18.30;54.00;;;;;;4921144;28;95839;-71
2022/03/14 00:55:08;;;;;;;66.50;49.33;;;18.30;53.90;;;;;;4914147;28;99349;-71
2022/03/14 00:57:34;;;;;;;66.35;49.45;;;18.30;53.90;;;;;;4925772;28;97186;-70
2022/03/14 00:59:59;;;;;;;66.88;49.42;;;18.40;53.90;;;;;;4918623;28;94985;-70
2022/03/14 01:02:25;;;;;;;66.28;49.28;;;18.30;54.30;;;;;;4915999;28;95069;-70
2022/03/14 01:04:51;;;;;;;66.60;49.35;;;18.30;53.80;;;;;;4921696;28;97102;-71
2022/03/14 01:07:16;;;;;;;66.00;49.15;;;18.30;54.40;;;;;;4926191;28;95382;-70
2022/03/14 01:09:42;;;;;;;66.95;49.35;;;18.30;53.80;;;;;;4915359;28;95186;-71
2022/03/14 01:12:08;;;;;;;66.35;49.35;;;18.30;53.70;;;;;;4926240;28;94767;-70
2022/03/14 01:14:35;;;;;;;66.38;49.53;;;18.30;53.70;;;;;;4918961;28;97506;-71
2022/03/14 01:17:01;;;;;;;68.15;49.53;;;18.30;53.70;;;;;;4922331;28;96014;-70
2022/03/14 01:19:26;;;;;;;65.47;49.10;;;18.30;53.80;;;;;;4922587;28;101060;-70
2022/03/14 01:21:52;;;;;;;66.38;49.33;;;18.30;53.70;;;;;;4917144;28;95810;-70
2022/03/14 01:24:18;;;;;;;66.55;49.45;;;18.20;53.60;;;;;;4921495;28;95351;-71
2022/03/14 01:26:44;;;;;;;67.40;49.58;;;18.30;53.70;;;;;;4919032;28;95161;-70
2022/03/14 01:29:10;;;;;;;66.13;49.20;;;18.20;53.70;;;;;;4920200;28;95065;-70
2022/03/14 01:31:36;;;;;;;66.32;49.28;;;18.20;53.70;;;;;;4916781;28;101397;-70
2022/03/14 01:34:02;;;;;;;66.53;49.42;;;18.20;53.70;;;;;;4922463;28;95934;-70
2022/03/14 01:36:28;;;;;;;66.75;49.60;;;18.20;53.70;;;;;;4923982;28;100154;-70
2022/03/14 01:38:55;;;;;;;65.97;49.22;;;18.20;53.70;;;;;;4914891;28;95122;-70
2022/03/14 01:41:22;;;;;;;66.47;49.70;;;18.20;53.70;;;;;;4930951;28;94984;-70
2022/03/14 01:43:49;;;;;;;65.97;49.08;;;18.20;53.90;;;;;;4916515;28;96014;-70
2022/03/14 01:46:16;;;;;;;66.38;49.38;;;18.20;53.80;;;;;;4923600;28;95894;-70
2022/03/14 01:48:43;;;;;;;65.72;49.10;;;18.20;53.80;;;;;;4920034;28;95101;-72
2022/03/14 01:51:08;;;;;;;66.07;49.20;;;18.20;53.80;;;;;;4921432;28;94995;-72
2022/03/14 01:53:35;;;;;;;66.85;49.50;;;18.20;53.80;;;;;;4923012;28;96388;-72
2022/03/14 01:56:01;;;;;;;66.20;49.35;;;18.10;53.60;;;;;;4912971;28;95103;-72
2022/03/14 01:58:27;;;;;;;65.43;49.05;;;18.10;53.70;;;;;;4939307;28;95091;-72
2022/03/14 02:00:53;;;;;;;65.90;49.10;;;18.10;53.70;;;;;;4916520;28;94472;-72
2022/03/14 02:03:18;;;;;;;66.60;49.53;;;18.10;53.70;;;;;;4923551;28;95576;-73
2022/03/14 02:05:45;;;;;;;66.30;49.20;;;18.10;53.70;;;;;;4908706;28;95852;-72
2022/03/14 02:08:11;;;;;;;66.35;49.40;;;18.10;53.60;;;;;;4910577;28;97883;-72
2022/03/14 02:10:38;;;;;;;66.85;49.42;;;18.10;53.70;;;;;;4911210;28;95699;-72
2022/03/14 02:13:08;;;;;;;66.45;49.47;;;18.10;53.70;;;;;;4918530;28;96252;-72
2022/03/14 02:15:34;;;;;;;65.88;49.38;;;18.00;53.60;;;;;;4918718;28;102094;-72
2022/03/14 02:18:01;;;;;;;66.47;49.38;;;18.00;53.70;;;;;;4913646;28;97271;-73
2022/03/14 02:20:26;;;;;;;66.82;49.53;;;18.00;53.70;;;;;;4922053;28;95542;-72
2022/03/14 02:22:52;;;;;;;67.22;49.55;;;18.00;53.70;;;;;;4915461;28;97245;-73
2022/03/14 02:25:18;;;;;;;65.70;49.30;;;18.00;53.70;;;;;;4920401;28;100306;-72
2022/03/14 02:27:43;;;;;;;66.25;49.35;;;18.00;53.80;;;;;;4921384;28;95663;-72
2022/03/14 02:30:10;;;;;;;66.00;49.40;;;17.90;53.40;;;;;;4925198;28;95720;-72
2022/03/14 02:32:41;;;;;;;66.05;49.40;;;17.90;53.70;;;;;;4916469;28;97102;-72
2022/03/14 02:35:10;;;;;;;66.13;49.20;;;17.90;53.80;;;;;;4912109;28;95404;-72
2022/03/14 02:37:37;;;;;;;65.90;49.17;;;17.80;53.70;;;;;;4913974;28;95015;-72
2022/03/14 02:40:04;;;;;;;67.50;49.33;;;17.80;53.70;;;;;;4912323;28;95389;-73
2022/03/14 02:42:30;;;;;;;66.20;49.38;;;17.80;53.80;;;;;;4917035;28;96876;-72
2022/03/14 02:44:55;;;;;;;66.88;49.42;;;17.80;53.80;;;;;;4912828;28;94777;-73
2022/03/14 02:47:21;;;;;;;66.75;49.05;;;17.80;53.90;;;;;;4914674;28;95392;-72
2022/03/14 02:49:48;;;;;;;66.53;49.17;;;17.80;53.90;;;;;;4917639;28;94153;-72
2022/03/14 02:52:13;;;;;;;65.68;49.05;;;17.70;53.80;;;;;;4910747;28;95293;-72
2022/03/14 02:54:40;;;;;;;66.07;49.22;;;17.70;53.90;;;;;;4919481;28;95456;-73
2022/03/14 02:57:07;;;;;;;66.07;49.25;;;17.70;53.90;;;;;;4910521;28;96812;-72
2022/03/14 02:59:33;;;;;;;66.63;49.28;;;17.70;54.00;;;;;;4919991;28;95463;-73
2022/03/14 03:01:58;;;;;;;65.78;49.22;;;17.70;53.90;;;;;;4914447;28;96182;-73
2022/03/14 03:04:24;;;;;;;66.07;49.38;;;17.70;54.00;;;;;;4911043;28;96519;-72
2022/03/14 03:06:50;;;;;;;65.78;49.08;;;17.60;53.90;;;;;;4920304;28;94889;-72
2022/03/14 03:09:15;;;;;;;65.93;49.15;;;17.60;53.90;;;;;;4917165;28;94706;-72
2022/03/14 03:11:41;;;;;;;66.72;49.25;;;17.60;53.90;;;;;;4912539;28;95522;-72
2022/03/14 03:14:07;;;;;;;66.55;49.35;;;17.60;53.90;;;;;;4910584;28;93923;-72
2022/03/14 03:16:34;;;;;;;65.50;49.05;;;17.60;53.90;;;;;;4913704;28;95141;-72
2022/03/14 03:19:00;;;;;;;66.28;49.35;;;17.50;54.00;;;;;;4922871;28;94725;-72
2022/03/14 03:21:26;;;;;;;65.93;49.33;;;17.60;54.70;;;;;;4911930;28;96494;-72
2022/03/14 03:23:52;;;;;;;65.32;48.90;;;17.50;54.00;;;;;;4919835;28;96007;-72
2022/03/14 03:26:19;;;;;;;64.82;48.75;;;17.50;54.10;;;;;;4910738;28;95344;-72
2022/03/14 03:28:44;;;;;;;67.15;49.25;;;17.50;54.10;;;;;;4914518;28;94869;-73
2022/03/14 03:31:19;;;;;;;66.00;49.10;;;17.50;54.10;;;;;;4914016;28;95247;-73
2022/03/14 03:33:47;;;;;;;65.72;49.25;;;17.40;54.10;;;;;;4915013;28;96247;-72
2022/03/14 03:36:12;;;;;;;66.72;48.85;;;17.40;54.10;;;;;;4914058;28;95071;-72
2022/03/14 03:38:38;;;;;;;65.68;48.88;;;17.40;54.10;;;;;;4913378;28;94724;-72
2022/03/14 03:41:04;;;;;;;65.47;48.88;;;17.40;54.20;;;;;;4917835;28;95075;-72
2022/03/14 03:43:30;;;;;;;67.25;49.08;;;17.40;54.20;;;;;;4915527;28;97548;-72
2022/03/14 03:45:56;;;;;;;65.03;48.85;;;17.40;54.20;;;;;;4917014;28;97026;-73
2022/03/14 03:48:22;;;;;;;65.05;48.72;;;17.40;54.20;;;;;;4917712;28;95088;-73
2022/03/14 03:50:48;;;;;;;65.70;48.80;;;17.30;54.20;;;;;;4920136;28;95082;-72
2022/03/14 03:53:13;;;;;;;65.50;48.90;;;17.30;54.20;;;;;;4909418;28;95337;-72
2022/03/14 03:55:39;;;;;;;65.18;48.92;;;17.30;54.30;;;;;;4912491;28;94667;-72
2022/03/14 04:00:44;;;;;;;65.53;49.03;;;17.20;54.30;;;;;;5016412;27;82493;-71
2022/03/14 04:03:09;;;;;;;65.50;48.90;;;17.30;54.30;;;;;;5010026;27;90321;-70
2022/03/14 04:05:39;;;;;;;64.80;48.67;;;17.20;54.30;;;;;;5011912;27;85032;-70
2022/03/14 04:08:10;;;;;;;65.25;48.72;;;17.20;54.30;;;;;;5015312;27;85028;-71
2022/03/14 04:10:36;;;;;;;65.18;48.95;;;17.20;54.40;;;;;;5007279;27;85634;-70
2022/03/14 04:13:03;;;;;;;66.55;49.17;;;17.20;54.30;;;;;;5008986;27;85778;-71
2022/03/14 04:15:29;;;;;;;66.97;49.03;;;17.10;54.40;;;;;;5009296;27;86142;-71
2022/03/14 04:17:58;;;;;;;66.18;49.03;;;17.20;54.40;;;;;;5011268;27;85563;-70
2022/03/14 04:20:24;;;;;;;64.80;48.90;;;17.10;54.40;;;;;;5009377;27;86110;-70
2022/03/14 04:22:51;;;;;;;66.22;49.10;;;17.10;54.40;;;;;;5011354;27;86369;-70
2022/03/14 04:25:16;;;;;;;65.35;48.83;;;17.10;54.40;;;;;;5014533;27;85186;-70
2022/03/14 04:27:42;;;;;;;65.57;48.80;;;17.10;54.40;;;;;;5008538;27;85523;-70
2022/03/14 04:30:09;;;;;;;65.45;49.03;;;17.10;54.40;;;;;;5012540;27;86055;-70
2022/03/14 04:32:35;;;;;;;66.20;48.50;;;17.10;54.40;;;;;;5009340;27;87079;-71
2022/03/14 04:35:00;;;;;;;64.50;48.67;;;17.10;54.50;;;;;;5004896;27;86356;-71
2022/03/14 04:37:26;;;;;;;66.28;48.85;;;17.20;54.50;;;;;;5013313;27;85344;-70
2022/03/14 04:39:53;;;;;;;65.13;48.55;;;17.20;54.40;;;;;;5005853;27;85460;-70
2022/03/14 04:42:21;;;;;;;65.70;49.00;;;17.20;54.40;;;;;;5010884;27;87470;-70
2022/03/14 04:44:49;;;;;;;65.00;48.85;;;17.20;54.30;;;;;;5007445;27;85807;-73
2022/03/14 04:47:16;;;;;;;64.55;48.72;;;17.20;54.30;;;;;;5017797;27;85241;-71
2022/03/14 04:49:42;;;;;;;64.97;48.72;;;17.30;54.30;;;;;;5009125;27;87466;-70
2022/03/14 04:52:08;;;;;;;66.05;48.70;;;17.30;54.30;;;;;;5015257;27;86742;-71
2022/03/14 04:54:33;;;;;;;66.22;48.65;;;17.30;54.20;;;;;;5010872;27;90170;-71
2022/03/14 04:56:59;;;;;;;65.65;48.72;;;17.30;54.20;;;;;;5011009;27;85525;-71
2022/03/14 04:59:25;;;;;;;65.13;48.75;;;17.30;54.30;;;;;;5009259;27;85576;-71
2022/03/14 05:01:50;;;;;;;67.45;48.55;;;17.30;54.20;;;;;;5012291;27;85528;-71
2022/03/14 05:04:16;;;;;;;65.40;48.78;;;17.30;54.10;;;;;;5010983;27;85108;-71
2022/03/14 05:06:42;;;;;;;65.70;48.67;;;17.30;54.80;;;;;;5007846;27;87077;-71
2022/03/14 05:09:07;;;;;;;65.70;49.15;;;17.30;54.40;;;;;;5003566;27;87938;-71
2022/03/14 05:11:33;;;;;;;65.47;48.83;;;17.40;54.40;;;;;;5001124;27;85621;-71
2022/03/14 05:13:59;;;;;;;65.63;48.97;;;17.40;54.40;;;;;;5002465;28;84964;-71
2022/03/14 05:16:25;;;;;;;65.75;48.78;;;17.40;54.40;;;;;;4999577;28;85187;-71
2022/03/14 05:18:51;;;;;;;65.68;49.00;;;17.50;54.50;;;;;;4992125;28;92715;-71
2022/03/14 05:21:16;;;;;;;66.13;48.90;;;17.50;54.40;;;;;;4993583;28;85471;-71
2022/03/14 05:23:42;;;;;;;66.30;48.80;;;17.60;54.20;;;;;;4990073;28;87292;-71
2022/03/14 05:26:07;;;;;;;65.82;48.60;;;17.70;54.20;;;;;;4992425;28;85225;-71
2022/03/14 05:28:34;;;;;;;65.85;48.85;;;17.70;54.10;;;;;;4997324;27;85092;-71
2022/03/14 05:30:59;;;;;;;66.18;48.85;;;17.80;54.00;;;;;;4998553;28;86519;-71
2022/03/14 05:33:25;;;;;;;65.40;48.70;;;17.90;54.10;;;;;;4994322;28;86605;-72
2022/03/14 05:35:53;;;;;;;65.63;48.95;;;17.90;53.90;;;;;;5001613;28;85455;-71
2022/03/14 05:38:19;;;;;;;64.65;48.38;;;17.90;53.80;;;;;;4995201;27;89834;-71
2022/03/14 05:40:44;;;;;;;65.05;48.85;;;18.00;53.70;;;;;;4991597;28;85659;-71
2022/03/14 05:43:11;;;;;;;65.47;48.83;;;18.00;53.50;;;;;;4982574;28;90087;-71
2022/03/14 05:45:37;;;;;;;64.68;48.40;;;18.10;53.50;;;;;;4994516;28;85709;-71
2022/03/14 05:48:03;;;;;;;65.60;48.75;;;18.10;53.40;;;;;;4989670;28;85805;-71
2022/03/14 05:50:29;;;;;;;65.80;48.85;;;18.20;53.30;;;;;;5001632;28;91813;-71
2022/03/14 05:52:55;;;;;;;65.05;48.67;;;18.20;53.20;;;;;;5000602;27;85722;-71
2022/03/14 05:55:21;;;;;;;67.15;49.22;;;18.20;53.30;;;;;;4996103;28;85548;-71
2022/03/14 05:57:47;;;;;;;65.55;48.75;;;18.30;53.20;;;;;;4998704;28;87938;-71
2022/03/14 06:00:23;;;;;;;66.15;48.85;;;18.30;53.10;;;;;;4991046;28;86128;-72
2022/03/14 06:02:49;;;;;;;65.05;48.80;;;18.30;53.00;;;;;;4988166;28;85591;-72
2022/03/14 06:05:17;;;;;;;65.72;48.75;;;18.30;53.00;;;;;;4990156;28;89762;-68
2022/03/14 06:07:43;;;;;;;66.22;49.05;;;18.40;52.90;;;;;;4987824;28;91650;-70
2022/03/14 06:10:09;;;;;;;66.50;48.85;;;18.50;52.90;;;;;;4976224;28;90255;-74
2022/03/14 06:12:35;;;;;;;76.10;49.33;;;18.50;53.10;;;;;;4987537;28;85049;-69
2022/03/14 06:15:02;;;;;;;68.07;49.40;;;18.60;53.70;;;;;;4999720;28;85988;-71
2022/03/14 06:17:28;;;;;;;67.93;49.70;;;18.60;53.50;;;;;;5015407;27;88129;-72
2022/03/14 06:19:55;;;;;;;66.97;49.47;;;18.60;53.40;;;;;;4992178;28;89114;-70
2022/03/14 06:22:22;;;;;;;68.80;49.67;;;18.70;53.30;;;;;;4993213;28;85194;-72
2022/03/14 06:24:49;;;;;;;70.18;49.78;;;18.70;53.10;;;;;;4992558;28;84983;-75
2022/03/14 06:27:15;;;;;;;67.72;49.53;;;18.80;53.00;;;;;;4989501;28;87109;-73
2022/03/14 06:29:42;;;;;;;66.88;49.40;;;18.80;52.80;;;;;;4993999;28;87392;-75
2022/03/14 06:32:08;;;;;;;69.38;49.72;;;18.80;52.70;;;;;;4992670;28;86572;-73
2022/03/14 06:34:34;;;;;;;88.15;52.85;;;18.90;52.70;;;;;;4991604;28;86522;-72
2022/03/14 06:37:00;;;;;;;80.13;52.42;;;18.90;52.80;;;;;;4990022;28;85501;-73
2022/03/14 06:39:25;;;;;;;80.25;53.15;;;19.00;52.80;;;;;;4991698;28;86022;-73
2022/03/14 06:41:51;;;;;;;80.90;52.65;;;19.10;52.90;;;;;;4992610;28;86378;-73
2022/03/14 06:44:18;;;;;;;80.10;52.75;;;19.10;52.80;;;;;;4990897;28;87081;-73
2022/03/14 06:46:44;;;;;;;82.70;52.63;;;19.20;52.60;;;;;;5001412;28;85324;-73
2022/03/14 06:49:14;;;;;;;81.93;52.53;;;19.20;52.40;;;;;;4995741;28;88540;-73
2022/03/14 06:51:41;;;;;;;78.50;52.15;;;19.20;52.30;;;;;;4975054;28;88869;-73
2022/03/14 06:54:07;;;;;;;77.82;52.13;;;19.30;52.30;;;;;;4991762;28;87819;-73
2022/03/14 06:56:33;;;;;;;85.90;52.35;;;19.30;52.00;;;;;;4980650;28;85664;-73
2022/03/14 06:58:59;;;;;;;78.95;52.08;;;19.40;52.10;;;;;;4990148;28;88613;-73
2022/03/14 07:01:25;;;;;;;77.53;52.03;;;19.50;52.00;;;;;;4959519;28;87773;-75
2022/03/14 07:03:50;;;;;;;74.70;51.85;;;19.50;52.00;;;;;;4977528;28;87682;-72
2022/03/14 07:06:16;;;;;;;82.00;51.88;;;19.60;52.30;;;;;;4984106;28;85512;-74
2022/03/14 07:08:42;;;;;;;77.50;52.40;;;19.70;52.20;;;;;;4992228;28;86357;-73
2022/03/14 07:11:07;;;;;;;78.90;51.65;;;19.80;52.20;;;;;;4989248;28;85148;-72
2022/03/14 07:13:34;;;;;;;79.97;51.58;;;19.90;52.00;;;;;;4986028;28;85424;-75
2022/03/14 07:15:59;;;;;;;76.72;51.72;;;20.00;51.80;;;;;;4995990;28;85144;-74
2022/03/14 07:18:25;;;;;;;80.10;51.42;;;20.10;51.60;;;;;;4999982;28;86564;-74
2022/03/14 07:20:50;;;;;;;80.00;51.67;;;20.10;51.30;;;;;;4990516;28;85302;-74
2022/03/14 07:23:16;;;;;;;77.78;52.45;;;20.20;51.00;;;;;;4985402;28;86959;-73
2022/03/14 07:25:42;;;;;;;77.68;51.95;;;20.30;51.00;;;;;;4980231;27;85355;-72
2022/03/14 07:28:09;;;;;;;76.95;52.25;;;20.40;50.90;;;;;;4979520;28;85980;-72
2022/03/14 07:30:36;;;;;;;77.20;51.90;;;20.40;50.60;;;;;;4977844;27;85848;-72
2022/03/14 07:33:02;;;;;;;82.05;52.15;;;20.50;50.50;;;;;;4990359;28;85623;-77
2022/03/14 07:35:29;;;;;;;78.90;52.38;;;20.50;50.30;;;;;;4980574;28;85907;-72
2022/03/14 07:37:55;;;;;;;81.78;52.22;;;20.60;50.20;;;;;;4974207;28;85801;-73
2022/03/14 07:40:21;;;;;;;75.10;51.97;;;20.70;50.10;;;;;;4984164;28;86476;-72
2022/03/14 07:42:49;;;;;;;79.93;51.90;;;20.70;50.00;;;;;;4979427;28;85500;-73
2022/03/14 07:45:19;;;;;;;79.35;52.15;;;20.80;49.90;;;;;;4986184;28;88721;-70
2022/03/14 07:47:47;;;;;;;78.10;52.08;;;20.80;49.70;;;;;;4990204;28;86524;-72
2022/03/14 07:50:15;;;;;;;78.20;52.40;;;20.90;49.60;;;;;;4988872;28;85585;-73
2022/03/14 07:52:42;;;;;;;76.25;51.58;;;20.90;49.50;;;;;;4990325;28;88888;-72
2022/03/14 07:55:08;;;;;;;76.70;51.92;;;21.00;49.40;;;;;;4988438;28;87023;-72
2022/03/14 07:57:35;;;;;;;77.10;52.00;;;21.00;49.30;;;;;;4984155;28;86604;-73
2022/03/14 08:00:03;;;;;;;75.05;51.83;;;21.00;49.20;;;;;;4980719;28;85544;-72
2022/03/14 08:02:29;;;;;;;73.53;51.78;;;21.10;49.10;;;;;;4978603;28;85863;-74
2022/03/14 08:04:55;;;;;;;76.20;51.50;;;21.10;49.00;;;;;;4981102;27;90159;-73
2022/03/14 08:07:20;;;;;;;76.22;51.83;;;21.10;48.90;;;;;;4972931;28;87628;-73
2022/03/14 08:09:48;;;;;;;74.45;51.80;;;21.10;49.20;;;;;;4978722;28;86441;-73
2022/03/14 08:12:15;;;;;;;78.03;51.97;;;21.10;48.80;;;;;;4974909;28;87492;-70
2022/03/14 08:14:40;;;;;;;73.65;51.50;;;21.10;48.80;;;;;;4979899;28;87901;-72
2022/03/14 08:17:06;;;;;;;72.30;51.60;;;21.10;48.70;;;;;;4993340;28;86252;-73
2022/03/14 08:19:32;;;;;;;69.40;51.00;;;21.10;48.70;;;;;;4981202;28;85838;-73
2022/03/14 08:21:58;;;;;;;70.28;51.30;;;21.10;49.30;;;;;;4997514;27;85925;-71
2022/03/14 08:24:25;;;;;;;70.75;51.10;;;21.10;48.70;;;;;;4978334;28;87757;-74
2022/03/14 08:26:51;;;;;;;68.70;51.17;;;21.10;48.60;;;;;;4964021;28;91381;-73
2022/03/14 08:29:17;;;;;;;68.03;50.78;;;21.10;48.60;;;;;;4967593;28;87280;-73
2022/03/14 08:31:43;;;;;;;78.07;51.75;;;21.10;48.60;;;;;;4979671;28;85857;-73
2022/03/14 08:34:10;;;;;;;78.05;51.50;;;21.10;48.60;;;;;;4968873;28;87298;-74
2022/03/14 08:36:36;;;;;;;76.88;51.75;;;21.10;48.60;;;;;;4986507;28;85689;-74
2022/03/14 08:39:05;;;;;;;74.68;51.58;;;21.20;48.70;;;;;;4970167;28;87415;-74
2022/03/14 08:41:31;;;;;;;76.57;51.80;;;21.10;48.50;;;;;;4961604;28;86980;-73
2022/03/14 08:43:57;;;;;;;75.75;51.40;;;21.10;48.40;;;;;;4979283;28;86283;-74
2022/03/14 08:46:23;;;;;;;75.30;51.70;;;21.10;48.50;;;;;;4974254;28;88643;-72
2022/03/14 08:48:49;;;;;;;93.63;59.20;;;21.10;48.60;;;;;;4977847;28;85625;-74
2022/03/14 08:51:15;;;;;;;93.38;57.63;;;21.10;48.70;;;;;;4971255;28;87142;-74
2022/03/14 08:53:40;;;;;;;94.40;58.20;;;21.10;48.60;;;;;;4975504;28;85847;-73
2022/03/14 08:56:06;;;;;;;93.57;57.47;;;21.10;48.80;;;;;;4984979;28;86042;-73
2022/03/14 08:58:33;;;;;;;91.20;57.03;;;21.10;48.90;;;;;;4985959;28;93299;-74
2022/03/14 09:00:59;;;;;;;86.50;56.72;;;21.10;48.90;;;;;;4973406;27;85565;-74
2022/03/14 09:03:28;;;;;;;86.57;55.75;;;21.20;49.00;;;;;;4984690;28;86089;-76
2022/03/14 09:05:57;;;;;;;87.47;55.75;;;21.10;48.90;;;;;;4979306;28;85798;-75
2022/03/14 09:08:24;;;;;;;88.35;56.00;;;21.10;48.70;;;;;;4979700;28;86475;-75
2022/03/14 09:10:50;;;;;;;86.05;55.25;;;21.10;48.80;;;;;;4988510;27;87421;-74
2022/03/14 09:13:16;;;;;;;83.20;54.83;;;21.20;48.80;;;;;;4984367;28;86215;-77
2022/03/14 09:15:42;;;;;;;85.28;55.20;;;21.20;48.70;;;;;;4992223;28;88414;-76
2022/03/14 09:18:08;;;;;;;81.90;54.47;;;21.20;48.90;;;;;;4984452;28;86171;-76
2022/03/14 09:20:39;;;;;;;87.70;55.08;;;21.20;49.00;;;;;;4984932;28;85386;-76
2022/03/14 09:23:06;;;;;;;85.57;55.13;;;21.20;49.10;;;;;;4989646;28;84963;-75
2022/03/14 09:25:32;;;;;;;86.55;55.05;;;21.20;49.20;;;;;;4973256;28;87399;-74
2022/03/14 09:27:59;;;;;;;86.55;54.65;;;21.20;49.30;;;;;;4964153;28;88245;-75
2022/03/14 09:30:25;;;;;;;87.50;55.00;;;21.10;49.30;;;;;;4985372;28;85759;-75
2022/03/14 09:32:51;;;;;;;85.78;54.17;;;21.20;49.40;;;;;;4986880;28;85509;-76
2022/03/14 09:35:18;;;;;;;80.75;53.70;;;21.20;49.50;;;;;;4982993;28;87146;-76
2022/03/14 09:37:45;;;;;;;86.15;54.38;;;21.20;49.50;;;;;;4978141;28;85880;-77
2022/03/14 09:40:13;;;;;;;118.15;69.07;;;21.20;49.50;;;;;;4973607;27;87651;-76
2022/03/14 09:42:41;;;;;;;109.88;65.47;;;21.20;49.50;;;;;;4982940;28;86009;-76
2022/03/14 09:45:09;;;;;;;106.88;65.70;;;21.20;49.50;;;;;;4986179;28;85893;-76
2022/03/14 09:47:40;;;;;;;109.28;63.50;;;21.20;49.60;;;;;;4981766;28;87577;-77
2022/03/14 09:50:09;;;;;;;115.82;65.60;;;21.20;49.60;;;;;;4983504;28;86804;-76
2022/03/14 09:52:37;;;;;;;112.43;64.35;;;21.20;49.70;;;;;;4990709;27;94564;-75
2022/03/14 09:55:06;;;;;;;99.45;62.92;;;21.20;49.70;;;;;;4983875;28;87138;-75
2022/03/14 09:57:32;;;;;;;105.18;62.45;;;21.20;49.50;;;;;;4984152;28;86039;-75
2022/03/14 09:59:58;;;;;;;102.22;62.13;;;21.20;49.50;;;;;;4973171;28;87158;-76
2022/03/14 10:02:24;;;;;;;98.85;60.90;;;21.20;49.50;;;;;;4975633;28;90577;-76
2022/03/14 10:04:50;;;;;;;95.43;61.05;;;21.20;49.50;;;;;;4980996;28;86755;-75
2022/03/14 10:07:16;;;;;;;101.70;61.42;;;21.10;49.60;;;;;;4976003;28;85745;-76
2022/03/14 10:09:43;;;;;;;97.38;60.55;;;21.10;49.70;;;;;;4980938;28;85929;-75
2022/03/14 10:12:09;;;;;;;98.82;59.72;;;21.10;49.70;;;;;;4982170;28;85538;-75
2022/03/14 10:14:35;;;;;;;97.57;60.70;;;21.10;49.70;;;;;;4979752;28;88451;-74
2022/03/14 10:17:01;;;;;;;94.78;59.95;;;21.10;49.80;;;;;;4981807;28;85701;-74
2022/03/14 10:19:31;;;;;;;96.90;59.70;;;21.10;49.80;;;;;;4990392;28;85925;-76
2022/03/14 10:22:11;;;;;;;97.18;58.78;;;21.10;49.80;;;;;;5001821;28;85224;-73
2022/03/14 10:24:38;;;;;;;94.82;58.25;;;21.10;49.80;;;;;;4996403;28;87747;-77
2022/03/14 10:27:05;;;;;;;93.63;58.67;;;21.10;49.70;;;;;;5004151;28;87562;-77
2022/03/14 10:29:31;;;;;;;90.25;57.88;;;21.10;49.70;;;;;;4992115;28;85605;-77
2022/03/14 10:31:57;;;;;;;87.65;57.47;;;21.10;49.50;;;;;;5002415;28;86472;-77
2022/03/14 10:34:23;;;;;;;90.63;57.25;;;21.10;49.40;;;;;;5001678;28;85896;-77
2022/03/14 10:36:57;;;;;;;87.40;56.42;;;21.00;50.00;;;;;;4992842;28;91278;-77
2022/03/14 10:39:32;;;;;;;84.45;56.03;;;21.00;49.30;;;;;;4997161;28;85343;-76
2022/03/14 10:42:11;;;;;;;84.10;55.75;;;21.00;49.20;;;;;;5001609;28;85756;-77
2022/03/14 10:44:38;;;;;;;81.78;54.45;;;21.00;49.10;;;;;;4991351;28;87558;-77
2022/03/14 10:47:06;;;;;;;81.55;54.67;;;20.90;49.00;;;;;;4999575;27;85369;-77
2022/03/14 10:49:38;;;;;;;80.90;53.90;;;20.90;49.00;;;;;;4993664;28;85647;-77
2022/03/14 10:52:13;;;;;;;80.78;53.92;;;20.90;48.90;;;;;;4990243;28;92670;-75
2022/03/14 10:54:41;;;;;;;80.32;53.75;;;20.90;48.90;;;;;;4999839;28;87131;-77
2022/03/14 10:57:13;;;;;;;84.75;54.10;;;20.90;48.90;;;;;;5006836;28;86584;-78
2022/03/14 10:59:42;;;;;;;90.32;54.13;;;20.90;49.00;;;;;;4997358;28;85040;-78
2022/03/14 11:02:14;;;;;;;84.53;54.15;;;20.80;49.00;;;;;;5004301;28;85029;-79
2022/03/14 11:04:45;;;;;;;81.43;53.67;;;20.90;49.10;;;;;;4992705;28;86674;-78
2022/03/14 11:07:12;;;;;;;83.22;53.60;;;20.80;49.00;;;;;;4988417;28;85509;-76
2022/03/14 11:10:06;;;;;;;80.40;53.22;;;20.80;49.00;;;;;;4988049;28;86747;-77
2022/03/14 11:12:31;;;;;;;79.20;53.22;;;20.80;49.00;;;;;;4994414;28;86061;-81
2022/03/14 11:15:08;;;;;;;77.95;53.15;;;20.80;49.00;;;;;;4998359;28;87320;-80
2022/03/14 11:17:35;;;;;;;77.97;52.55;;;20.80;49.00;;;;;;4993746;28;88003;-75
2022/03/14 11:20:01;;;;;;;80.88;53.10;;;20.80;49.10;;;;;;5004005;28;85229;-82
2022/03/14 11:22:29;;;;;;;88.88;53.90;;;20.80;49.20;;;;;;5008872;28;85819;-77
2022/03/14 11:24:59;;;;;;;87.80;53.35;;;20.80;49.10;;;;;;5003805;28;86703;-78
2022/03/14 11:27:32;;;;;;;86.63;53.67;;;20.80;49.30;;;;;;5003353;28;88350;-79
2022/03/14 11:30:08;;;;;;;86.43;52.88;;;20.80;49.40;;;;;;4996899;28;87204;-78
2022/03/14 11:32:36;;;;;;;81.40;53.10;;;20.80;49.60;;;;;;5002955;28;88058;-78
2022/03/14 11:35:07;;;;;;;82.43;53.35;;;20.90;49.60;;;;;;4991594;28;86296;-79
2022/03/14 11:37:33;;;;;;;82.28;53.03;;;20.90;49.70;;;;;;4997566;28;84333;-79
2022/03/14 11:40:01;;;;;;;88.35;53.60;;;20.90;49.70;;;;;;4997789;28;85555;-80
2022/03/14 11:42:27;;;;;;;85.95;53.92;;;21.00;49.80;;;;;;4989052;28;85141;-79
2022/03/14 11:44:54;;;;;;;89.07;53.67;;;20.90;49.80;;;;;;4998724;28;86146;-79
2022/03/14 11:47:21;;;;;;;82.72;53.63;;;21.00;49.80;;;;;;4996234;28;87939;-76
2022/03/14 11:49:48;;;;;;;87.80;54.10;;;21.00;49.80;;;;;;4996811;28;85385;-80
2022/03/14 11:52:43;;;;;;;84.00;54.08;;;21.10;50.00;;;;;;4994527;28;85495;-80
2022/03/14 11:55:48;;;;;;;84.85;53.97;;;21.10;49.90;;;;;;4987824;28;88199;-80
2022/03/14 11:58:35;;;;;;;85.93;54.17;;;21.10;50.00;;;;;;4980392;28;88314;-80
2022/03/14 12:01:23;;;;;;;84.13;53.53;;;21.10;49.90;;;;;;4992602;28;86148;-80
2022/03/14 12:03:55;;;;;;;82.45;53.75;;;21.10;49.80;;;;;;4983352;28;86167;-80
2022/03/14 12:06:46;;;;;;;85.05;53.53;;;21.10;49.80;;;;;;4993377;28;86419;-80
2022/03/14 12:09:26;;;;;;;86.05;54.03;;;21.10;49.70;;;;;;4992128;28;86421;-80
2022/03/14 12:11:56;;;;;;;81.43;53.73;;;21.10;49.60;;;;;;4999427;28;85594;-79
2022/03/14 12:14:44;;;;;;;84.63;53.75;;;21.10;49.60;;;;;;4997528;28;85060;-80
2022/03/14 12:17:12;;;;;;;86.57;54.05;;;21.10;49.40;;;;;;4992834;28;86591;-80
2022/03/14 12:19:41;;;;;;;84.65;53.90;;;21.10;49.40;;;;;;5000769;28;85561;-80
2022/03/14 12:22:07;;;;;;;82.25;53.88;;;21.10;49.20;;;;;;5004278;28;87200;-80
2022/03/14 12:24:35;;;;;;;83.07;53.53;;;21.10;48.30;;;;;;5008214;28;85923;-79
2022/03/14 12:27:02;;;;;;;84.88;53.30;;;21.10;46.90;;;;;;4996979;28;87455;-80
2022/03/14 12:29:39;;;;;;;85.53;53.75;;;21.10;45.70;;;;;;4997682;28;86602;-80